createdAt,value
2024-01-15T00:02:16.193Z,96630.47
2024-01-15T00:04:43.998Z,96639.28
2024-01-15T00:07:11.632Z,96630.03
2024-01-15T00:09:39.384Z,96629.03
2024-01-15T00:12:07.730Z,96626.38
2024-01-15T00:14:35.253Z,96632.91
2024-01-15T00:17:02.868Z,96632.91
2024-01-15T00:19:33.569Z,96630.91
2024-01-15T00:22:01.466Z,96627.44
2024-01-15T00:24:29.093Z,96629.94
2024-01-15T00:26:56.997Z,96609.47
2024-01-15T00:29:24.556Z,96625.63
2024-01-15T00:31:52.309Z,96615.78
2024-01-15T00:34:20.035Z,96616.63
2024-01-15T00:36:49.564Z,96622.72
2024-01-15T00:39:17.974Z,96627.88
2024-01-15T00:41:45.654Z,96627.75
2024-01-15T00:44:13.337Z,96619.25
2024-01-15T00:46:45.592Z,96619.41
2024-01-15T00:49:13.496Z,96619.09
2024-01-15T00:51:41.328Z,96622.34
2024-01-15T00:54:10.558Z,96621.38
2024-01-15T00:56:38.307Z,96624.34
2024-01-15T00:59:05.886Z,96617.03
2024-01-15T01:01:33.607Z,96620.53
2024-01-15T01:04:01.346Z,96614.63
2024-01-15T01:06:31.405Z,96623.28
2024-01-15T01:09:00.232Z,96623.09
2024-01-15T01:11:29.209Z,96615.16
2024-01-15T01:13:57.859Z,96610.84
2024-01-15T01:16:25.406Z,96587.56
2024-01-15T01:18:53.291Z,96599.22
2024-01-15T01:21:21.371Z,96612.22
2024-01-15T01:23:49.093Z,96608.78
2024-01-15T01:26:17.653Z,96613.25
2024-01-15T01:28:46.710Z,96614.09
2024-01-15T01:31:14.458Z,96614.56
2024-01-15T01:33:42.276Z,96617.88
2024-01-15T01:36:10.853Z,96611.53
2024-01-15T01:38:39.416Z,96611.66
2024-01-15T01:41:07.131Z,96603.31
2024-01-15T01:43:34.812Z,96606.13
2024-01-15T01:46:04.384Z,96601.66
2024-01-15T01:48:33.278Z,96609.91
2024-01-15T01:51:04.617Z,96609.38
2024-01-15T01:53:34.748Z,96599.22
2024-01-15T01:56:04.024Z,96599.72
2024-01-15T01:58:32.991Z,96606.72
2024-01-15T02:01:00.998Z,96606.25
2024-01-15T02:03:31.713Z,96606.13
2024-01-15T02:06:00.830Z,96603.31
2024-01-15T02:08:28.662Z,96597.31
2024-01-15T02:10:56.289Z,96596.50
2024-01-15T02:13:23.948Z,96599.00
2024-01-15T02:15:51.642Z,96594.00
2024-01-15T02:18:19.407Z,96595.00
2024-01-15T02:20:48.948Z,96587.31
2024-01-15T02:23:17.902Z,96591.50
2024-01-15T02:25:47.158Z,96593.19
2024-01-15T02:28:15.945Z,96592.34
2024-01-15T02:30:44.728Z,96591.50
2024-01-15T02:33:13.702Z,96591.03
2024-01-15T02:35:42.052Z,96595.22
2024-01-15T02:38:09.848Z,96591.44
2024-01-15T02:40:39.894Z,96590.97
2024-01-15T02:43:07.467Z,96586.22
2024-01-15T02:45:35.078Z,96590.22
2024-01-15T02:48:02.799Z,96589.06
2024-01-15T02:50:30.460Z,96582.94
2024-01-15T02:52:58.118Z,96586.13
2024-01-15T02:55:25.786Z,96575.91
2024-01-15T02:57:54.846Z,96572.47
2024-01-15T03:00:22.501Z,96574.00
2024-01-15T03:02:52.082Z,96568.53
2024-01-15T03:05:19.793Z,96561.16
2024-01-15T03:07:47.364Z,96562.75
2024-01-15T03:10:15.041Z,96557.00
2024-01-15T03:12:42.705Z,96561.88
2024-01-15T03:15:11.904Z,96552.03
2024-01-15T03:17:39.546Z,96552.06
2024-01-15T03:20:08.597Z,96545.59
2024-01-15T03:22:36.230Z,96553.56
2024-01-15T03:25:04.805Z,96543.59
2024-01-15T03:27:32.455Z,96555.09
2024-01-15T03:30:00.134Z,96543.16
2024-01-15T03:32:29.256Z,96556.09
2024-01-15T03:34:56.902Z,96553.28
2024-01-15T03:37:24.627Z,96559.28
2024-01-15T03:39:52.375Z,96551.97
2024-01-15T03:42:20.129Z,96563.09
2024-01-15T03:44:47.748Z,96554.97
2024-01-15T03:47:15.658Z,96543.47
2024-01-15T03:49:44.749Z,96549.81
2024-01-15T03:52:12.340Z,96548.97
2024-01-15T03:54:40.109Z,96549.66
2024-01-15T03:57:07.857Z,96534.84
2024-01-15T03:59:35.545Z,96530.69
2024-01-15T04:02:03.181Z,96523.19
2024-01-15T04:04:31.050Z,96525.69
2024-01-15T04:07:00.175Z,96532.69
2024-01-15T04:09:27.891Z,96534.19
2024-01-15T04:11:55.496Z,96530.84
2024-01-15T04:14:23.161Z,96529.03
2024-01-15T04:16:50.746Z,96516.72
2024-01-15T04:19:18.411Z,96514.88
2024-01-15T04:21:46.240Z,96509.88
2024-01-15T04:24:15.656Z,96519.88
2024-01-15T04:26:44.139Z,96512.72
2024-01-15T04:29:11.710Z,96505.72
2024-01-15T04:31:39.417Z,96508.56
2024-01-15T04:34:07.250Z,96513.38
2024-01-15T04:36:40.083Z,96518.56
2024-01-15T04:39:08.044Z,96521.53
2024-01-15T04:41:37.075Z,96518.03
2024-01-15T04:44:04.942Z,96518.88
2024-01-15T04:46:32.568Z,96506.38
2024-01-15T04:49:00.346Z,96519.03
2024-01-15T04:51:28.250Z,96521.03
2024-01-15T04:53:55.923Z,96517.19
2024-01-15T04:56:23.654Z,96515.56
2024-01-15T04:58:52.681Z,96512.06
2024-01-15T05:01:20.348Z,96504.72
2024-01-15T05:03:48.212Z,96505.06
2024-01-15T05:06:16.087Z,96499.91
2024-01-15T05:08:43.865Z,96502.06
2024-01-15T05:11:11.494Z,96498.75
2024-01-15T05:13:39.097Z,96498.75
2024-01-15T05:16:08.183Z,96497.41
2024-01-15T05:18:35.912Z,96499.06
2024-01-15T05:21:03.757Z,96501.56
2024-01-15T05:23:32.127Z,96494.41
2024-01-15T05:25:59.775Z,96499.41
2024-01-15T05:28:27.339Z,96495.06
2024-01-15T05:30:56.720Z,96484.44
2024-01-15T05:33:25.962Z,96483.59
2024-01-15T05:35:55.018Z,96479.59
2024-01-15T05:38:22.700Z,96473.94
2024-01-15T05:40:50.304Z,96479.06
2024-01-15T05:43:17.897Z,96481.56
2024-01-15T05:45:48.384Z,96491.06
2024-01-15T05:48:16.271Z,96482.91
2024-01-15T05:50:45.536Z,96492.06
2024-01-15T05:53:13.244Z,96486.75
2024-01-15T05:55:40.831Z,96487.22
2024-01-15T05:58:08.429Z,96479.06
2024-01-15T06:00:37.122Z,96476.75
2024-01-15T06:03:05.655Z,96467.94
2024-01-15T06:05:33.376Z,96471.09
2024-01-15T06:08:02.350Z,96472.75
2024-01-15T06:10:29.874Z,96470.25
2024-01-15T06:12:57.573Z,96478.09
2024-01-15T06:15:25.164Z,96467.59
2024-01-15T06:17:52.836Z,96472.91
2024-01-15T06:20:20.510Z,96469.25
2024-01-15T06:22:48.104Z,96463.78
2024-01-15T06:25:17.103Z,96459.25
2024-01-15T06:27:44.746Z,96464.56
2024-01-15T06:30:13.563Z,96463.78
2024-01-15T06:32:41.405Z,96463.06
2024-01-15T06:35:11.595Z,96460.25
2024-01-15T06:37:39.190Z,96460.41
2024-01-15T06:40:08.172Z,96469.06
2024-01-15T06:42:37.269Z,96455.59
2024-01-15T06:45:06.178Z,96456.91
2024-01-15T06:47:33.879Z,96472.06
2024-01-15T06:50:01.888Z,96470.06
2024-01-15T06:52:29.692Z,96460.41
2024-01-15T06:54:57.384Z,96475.38
2024-01-15T06:57:24.985Z,96458.72
2024-01-15T06:59:53.991Z,96461.06
2024-01-15T07:02:22.593Z,96466.03
2024-01-15T07:04:50.267Z,96464.22
2024-01-15T07:07:18.221Z,96461.53
2024-01-15T07:09:45.852Z,96460.56
2024-01-15T07:12:13.510Z,96456.22
2024-01-15T07:14:41.117Z,96467.34
2024-01-15T07:17:10.064Z,96460.03
2024-01-15T07:19:37.842Z,96466.50
2024-01-15T07:22:05.951Z,96464.00
2024-01-15T07:24:35.714Z,96459.69
2024-01-15T07:27:05.738Z,96461.03
2024-01-15T07:29:34.341Z,96455.84
2024-01-15T07:32:02.098Z,96453.66
2024-01-15T07:34:31.330Z,96452.16
2024-01-15T07:36:59.250Z,96456.31
2024-01-15T07:39:27.059Z,96445.66
2024-01-15T07:41:54.701Z,96452.59
2024-01-15T07:44:22.272Z,96460.78
2024-01-15T07:46:50.004Z,96461.09
2024-01-15T07:49:18.044Z,96459.91
2024-01-15T07:51:47.285Z,96459.09
2024-01-15T07:54:14.952Z,96464.25
2024-01-15T07:56:55.020Z,96462.41
2024-01-15T07:59:22.711Z,96463.25
2024-01-15T08:01:50.480Z,96468.59
2024-01-15T08:04:18.225Z,96458.56
2024-01-15T08:06:47.803Z,96463.06
2024-01-15T08:09:15.536Z,96451.22
2024-01-15T08:11:43.779Z,96451.03
2024-01-15T08:14:12.098Z,96438.59
2024-01-15T08:16:40.078Z,96447.38
2024-01-15T08:19:08.351Z,96452.53
2024-01-15T08:21:36.281Z,96445.06
2024-01-15T08:24:05.878Z,96453.69
2024-01-15T08:26:33.902Z,96458.50
2024-01-15T08:29:01.555Z,96466.50
2024-01-15T08:31:29.345Z,96467.16
2024-01-15T08:33:57.164Z,96460.81
2024-01-15T08:36:25.963Z,96463.50
2024-01-15T08:38:53.617Z,96458.97
2024-01-15T08:41:22.789Z,96459.09
2024-01-15T08:43:50.390Z,96459.94
2024-01-15T08:46:17.985Z,96462.59
2024-01-15T08:48:45.770Z,96462.25
2024-01-15T08:51:13.684Z,96456.94
2024-01-15T08:53:41.397Z,96465.88
2024-01-15T08:56:09.738Z,96464.88
2024-01-15T08:58:38.714Z,96470.03
2024-01-15T09:01:06.710Z,96474.19
2024-01-15T09:03:35.305Z,96467.00
2024-01-15T09:06:03.122Z,96469.16
2024-01-15T09:08:30.738Z,96465.00
2024-01-15T09:10:58.574Z,96460.84
2024-01-15T09:13:26.230Z,96461.81
2024-01-15T09:15:55.426Z,96457.84
2024-01-15T09:18:23.106Z,96457.31
2024-01-15T09:20:51.222Z,96437.53
2024-01-15T09:23:18.822Z,96452.97
2024-01-15T09:25:46.521Z,96463.06
2024-01-15T09:28:14.882Z,96450.19
2024-01-15T09:30:42.651Z,96449.84
2024-01-15T09:33:11.827Z,96432.34
2024-01-15T09:35:39.538Z,96445.31
2024-01-15T09:38:07.150Z,96444.31
2024-01-15T09:40:34.999Z,96437.81
2024-01-15T09:43:03.913Z,96432.81
2024-01-15T09:45:31.924Z,96432.63
2024-01-15T09:48:00.203Z,96429.84
2024-01-15T09:50:29.483Z,96432.47
2024-01-15T09:52:58.628Z,96428.09
2024-01-15T09:55:26.334Z,96429.09
2024-01-15T09:57:56.480Z,96431.75
2024-01-15T10:00:24.929Z,96417.56
2024-01-15T10:02:52.483Z,96417.75
2024-01-15T10:05:20.189Z,96405.69
2024-01-15T10:07:51.164Z,96405.34
2024-01-15T10:10:18.783Z,96408.31
2024-01-15T10:12:46.541Z,96361.84
2024-01-15T10:15:14.324Z,96387.06
2024-01-15T10:17:43.245Z,96390.47
2024-01-15T10:20:12.483Z,96388.81
2024-01-15T10:22:52.628Z,96385.78
2024-01-15T10:25:26.834Z,96391.22
2024-01-15T10:28:02.386Z,96390.22
2024-01-15T10:30:30.588Z,96384.31
2024-01-15T10:33:00.583Z,96385.53
2024-01-15T10:35:30.107Z,96382.84
2024-01-15T10:37:57.946Z,96375.75
2024-01-15T10:40:26.953Z,96387.00
2024-01-15T10:42:55.004Z,96388.66
2024-01-15T10:45:23.439Z,96382.31
2024-01-15T10:47:51.106Z,96379.47
2024-01-15T10:50:18.957Z,96368.88
2024-01-15T10:52:46.921Z,96366.00
2024-01-15T10:55:19.505Z,96370.63
2024-01-15T10:57:50.844Z,96371.06
2024-01-15T11:00:19.057Z,96362.88
2024-01-15T11:02:47.331Z,96365.53
2024-01-15T11:05:15.063Z,96362.03
2024-01-15T11:07:43.365Z,96358.38
2024-01-15T11:10:39.173Z,96359.94
2024-01-15T11:13:11.813Z,96364.09
2024-01-15T11:16:00.741Z,96358.91
2024-01-15T11:18:31.036Z,96354.59
2024-01-15T11:21:24.496Z,96355.88
2024-01-15T11:23:54.971Z,96365.28
2024-01-15T11:26:31.204Z,96362.59
2024-01-15T11:29:01.407Z,96357.06
2024-01-15T11:31:30.117Z,96349.91
2024-01-15T11:33:58.081Z,96354.41
2024-01-15T11:36:59.146Z,96340.03
2024-01-15T11:39:44.094Z,96340.09
2024-01-15T11:42:13.180Z,96343.59
2024-01-15T11:44:42.856Z,96337.25
2024-01-15T11:47:16.511Z,96339.81
2024-01-15T11:50:03.570Z,96346.56
2024-01-15T11:52:34.921Z,96337.06
2024-01-15T11:55:09.017Z,96331.28
2024-01-15T11:57:42.805Z,96326.09
2024-01-15T12:00:13.430Z,96320.97
2024-01-15T12:02:42.518Z,96316.25
2024-01-15T12:05:11.179Z,96312.19
2024-01-15T12:07:39.054Z,96320.88
2024-01-15T12:10:09.952Z,96312.84
2024-01-15T12:12:48.363Z,96302.16
2024-01-15T12:15:17.747Z,96309.78
2024-01-15T12:17:46.530Z,96313.03
2024-01-15T12:20:16.949Z,96310.16
2024-01-15T12:22:53.430Z,96301.41
2024-01-15T12:25:30.229Z,96299.56
2024-01-15T12:27:58.415Z,96307.41
2024-01-15T12:30:28.768Z,96292.00
2024-01-15T12:32:56.723Z,96301.31
2024-01-15T12:35:27.268Z,96303.16
2024-01-15T12:37:55.746Z,96312.47
2024-01-15T12:40:24.485Z,96312.47
2024-01-15T12:42:52.196Z,96324.38
2024-01-15T12:45:20.350Z,96309.16
2024-01-15T12:47:49.794Z,96306.31
2024-01-15T12:50:20.080Z,96311.00
2024-01-15T12:52:48.883Z,96305.94
2024-01-15T12:55:17.086Z,96304.28
2024-01-15T12:57:46.417Z,96304.09
2024-01-15T13:00:15.426Z,96305.28
2024-01-15T13:02:44.594Z,96306.41
2024-01-15T13:05:15.434Z,96302.44
2024-01-15T13:07:44.577Z,96310.81
2024-01-15T13:10:13.496Z,96308.94
2024-01-15T13:12:42.733Z,96312.19
2024-01-15T13:15:14.988Z,96309.50
2024-01-15T13:17:43.929Z,96315.31
2024-01-15T13:20:14.847Z,96315.13
2024-01-15T13:22:45.347Z,96312.53
2024-01-15T13:25:13.519Z,96317.94
2024-01-15T13:27:42.235Z,96324.47
2024-01-15T13:30:12.101Z,96327.94
2024-01-15T13:32:39.913Z,96324.88
2024-01-15T13:35:10.978Z,96326.66
2024-01-15T13:37:42.503Z,96332.84
2024-01-15T13:40:17.405Z,96340.19
2024-01-15T13:42:46.965Z,96335.41
2024-01-15T13:45:18.119Z,96346.53
2024-01-15T13:47:46.104Z,96348.72
2024-01-15T13:50:13.970Z,96340.72
2024-01-15T13:52:43.257Z,96350.75
2024-01-15T13:55:11.227Z,96353.78
2024-01-15T13:57:39.257Z,96362.66
2024-01-15T14:00:12.897Z,96369.66
2024-01-15T14:02:41.321Z,96371.38
2024-01-15T14:05:09.679Z,96365.69
2024-01-15T14:07:37.452Z,96379.38
2024-01-15T14:10:09.166Z,96368.91
2024-01-15T14:12:37.536Z,96383.06
2024-01-15T14:15:06.843Z,96384.38
2024-01-15T14:17:34.636Z,96393.22
2024-01-15T14:20:02.541Z,96404.50
2024-01-15T14:22:30.249Z,96402.22
2024-01-15T14:24:57.906Z,96408.09
2024-01-15T14:27:27.720Z,96409.75
2024-01-15T14:29:55.340Z,96417.41
2024-01-15T14:32:23.062Z,96426.09
2024-01-15T14:34:50.766Z,96431.13
2024-01-15T14:37:18.521Z,96429.44
2024-01-15T14:39:46.102Z,96437.81
2024-01-15T14:42:13.735Z,96440.19
2024-01-15T14:44:42.801Z,96449.72
2024-01-15T14:47:10.466Z,96451.53
2024-01-15T14:49:38.174Z,96444.38
2024-01-15T14:52:06.388Z,96447.56
2024-01-15T14:54:34.161Z,96453.69
2024-01-15T14:57:02.042Z,96452.69
2024-01-15T14:59:30.908Z,96452.69
2024-01-15T15:02:00.055Z,96465.88
2024-01-15T15:04:28.116Z,96468.84
2024-01-15T15:06:56.242Z,96470.16
2024-01-15T15:09:24.048Z,96474.03
2024-01-15T15:11:53.248Z,96474.56
2024-01-15T15:14:20.949Z,96486.72
2024-01-15T15:16:48.636Z,96477.75
2024-01-15T15:19:18.815Z,96497.91
2024-01-15T15:21:46.881Z,96488.25
2024-01-15T15:24:14.638Z,96510.88
2024-01-15T15:26:42.285Z,96521.19
2024-01-15T15:29:09.950Z,96524.53
2024-01-15T15:31:38.301Z,96523.69
2024-01-15T15:34:06.121Z,96525.22
2024-01-15T15:36:35.642Z,96518.06
2024-01-15T15:39:03.468Z,96524.44
2024-01-15T15:41:31.120Z,96541.06
2024-01-15T15:43:58.842Z,96553.75
2024-01-15T15:46:26.372Z,96550.78
2024-01-15T15:48:54.072Z,96556.25
2024-01-15T15:51:21.795Z,96557.75
2024-01-15T15:53:52.971Z,96565.41
2024-01-15T15:56:20.760Z,96559.75
2024-01-15T15:58:48.537Z,96564.44
2024-01-15T16:01:16.453Z,96567.28
2024-01-15T16:03:44.224Z,96574.91
2024-01-15T16:06:12.531Z,96569.47
2024-01-15T16:08:40.350Z,96575.63
2024-01-15T16:11:09.351Z,96575.78
2024-01-15T16:13:36.921Z,96586.09
2024-01-15T16:23:09.535Z,96604.94
2024-01-15T16:23:22.595Z,96598.09
2024-01-15T16:23:37.554Z,96596.09
2024-01-15T16:24:37.156Z,96606.94
2024-01-15T16:29:50.957Z,96608.09
2024-01-15T16:32:18.675Z,96614.41
2024-01-15T16:34:46.378Z,96609.44
2024-01-15T16:37:14.017Z,96607.25
2024-01-15T16:39:41.722Z,96609.94
2024-01-15T16:42:10.004Z,96623.06
2024-01-15T16:44:39.441Z,96629.72
2024-01-15T16:47:08.859Z,96632.41
2024-01-15T16:49:36.880Z,96641.72
2024-01-15T16:52:07.889Z,96637.06
2024-01-15T16:54:36.305Z,96652.72
2024-01-15T16:57:04.437Z,96647.72
2024-01-15T16:59:32.215Z,96644.72
2024-01-15T17:02:01.333Z,96654.72
2024-01-15T17:04:29.193Z,96656.53
2024-01-15T17:06:57.464Z,96655.56
2024-01-15T17:09:25.156Z,96659.41
2024-01-15T17:11:52.797Z,96663.53
2024-01-15T17:14:20.927Z,96664.38
2024-01-15T17:16:49.090Z,96660.53
2024-01-15T17:19:18.239Z,96667.84
2024-01-15T17:21:45.906Z,96679.34
2024-01-15T17:24:14.225Z,96685.84
2024-01-15T17:26:41.812Z,96687.81
2024-01-15T17:29:09.577Z,96694.84
2024-01-15T17:31:37.470Z,96709.81
2024-01-15T17:34:05.481Z,96707.47
2024-01-15T17:36:34.691Z,96698.34
2024-01-15T17:39:02.264Z,96703.16
2024-01-15T17:41:30.056Z,96708.50
2024-01-15T17:43:57.679Z,96708.50
2024-01-15T17:46:27.392Z,96715.66
2024-01-15T17:49:04.038Z,96720.97
2024-01-15T17:51:32.819Z,96720.66
2024-01-15T17:54:02.648Z,96734.13
2024-01-15T17:56:30.697Z,96725.31
2024-01-15T17:58:58.360Z,96723.31
2024-01-15T18:01:25.950Z,96738.47
2024-01-15T18:03:53.907Z,96742.78
2024-01-15T18:06:21.526Z,96749.97
2024-01-15T18:08:49.122Z,96744.47
2024-01-15T18:11:19.264Z,96746.28
2024-01-15T18:13:47.282Z,96754.47
2024-01-15T18:16:15.183Z,96764.28
2024-01-15T18:18:43.196Z,96758.28
2024-01-15T18:21:10.830Z,96767.25
2024-01-15T18:23:38.427Z,96771.25
2024-01-15T18:26:06.242Z,96772.75
2024-01-15T18:28:35.254Z,96774.41
2024-01-15T18:31:02.815Z,96779.91
2024-01-15T18:33:30.545Z,96780.56
2024-01-15T18:35:58.295Z,96773.25
2024-01-15T18:38:25.963Z,96788.25
2024-01-15T18:40:54.020Z,96785.41
2024-01-15T18:43:22.984Z,96797.03
2024-01-15T18:45:52.854Z,96802.69
2024-01-15T18:48:20.683Z,96800.69
2024-01-15T18:50:49.357Z,96805.38
2024-01-15T18:53:17.033Z,96808.69
2024-01-15T18:55:44.674Z,96802.69
2024-01-15T18:58:12.338Z,96815.03
2024-01-15T19:00:39.964Z,96818.03
2024-01-15T19:03:09.413Z,96828.03
2024-01-15T19:05:40.187Z,96829.69
2024-01-15T19:08:07.943Z,96829.84
2024-01-15T19:10:35.710Z,96825.69
2024-01-15T19:13:06.872Z,96839.88
2024-01-15T19:15:34.792Z,96827.69
2024-01-15T19:18:02.626Z,96832.03
2024-01-15T19:20:33.314Z,96833.53
2024-01-15T19:23:02.797Z,96821.16
2024-01-15T19:25:30.732Z,96824.00
2024-01-15T19:27:58.382Z,96808.34
2024-01-15T19:30:25.954Z,96832.66
2024-01-15T19:32:53.900Z,96835.84
2024-01-15T19:35:21.650Z,96819.53
2024-01-15T19:37:50.866Z,96824.88
2024-01-15T19:40:18.936Z,96836.03
2024-01-15T19:42:46.827Z,96841.19
2024-01-15T19:45:14.544Z,96841.53
2024-01-15T19:47:42.487Z,96840.38
2024-01-15T19:50:10.831Z,96844.72
2024-01-15T19:52:38.584Z,96845.88
2024-01-15T19:55:08.975Z,96837.34
2024-01-15T19:57:36.692Z,96847.53
2024-01-15T20:00:05.539Z,96852.84
2024-01-15T20:02:33.508Z,96854.38
2024-01-15T20:05:01.710Z,96860.19
2024-01-15T20:07:29.532Z,96863.69
2024-01-15T20:09:58.013Z,96863.00
2024-01-15T20:12:27.019Z,96878.50
2024-01-15T20:14:54.615Z,96879.34
2024-01-15T20:17:24.908Z,96885.00
2024-01-15T20:19:53.998Z,96889.00
2024-01-15T20:22:21.913Z,96882.00
2024-01-15T20:24:49.644Z,96883.53
2024-01-15T20:27:17.510Z,96875.19
2024-01-15T20:29:46.706Z,96887.66
2024-01-15T20:32:17.147Z,96896.00
2024-01-15T20:34:44.959Z,96900.34
2024-01-15T20:37:13.044Z,96887.66
2024-01-15T20:39:40.775Z,96889.31
2024-01-15T20:42:08.685Z,96892.16
2024-01-15T20:44:36.523Z,96883.31
2024-01-15T20:47:05.811Z,96890.31
2024-01-15T20:49:33.388Z,96888.94
2024-01-15T20:52:01.161Z,96886.28
2024-01-15T20:54:28.737Z,96880.66
2024-01-15T20:56:56.922Z,96882.84
2024-01-15T20:59:25.094Z,96886.50
2024-01-15T21:01:52.916Z,96893.84
2024-01-15T21:04:23.371Z,96890.31
2024-01-15T21:06:51.999Z,96895.81
2024-01-15T21:09:20.188Z,96890.78
2024-01-15T21:11:47.805Z,96899.25
2024-01-15T21:14:19.516Z,96899.94
2024-01-15T21:16:47.788Z,96901.63
2024-01-15T21:19:15.571Z,96909.81
2024-01-15T21:21:48.947Z,96910.44
2024-01-15T21:24:17.321Z,96917.13
2024-01-15T21:26:45.067Z,96927.09
2024-01-15T21:29:13.014Z,96915.59
2024-01-15T21:31:40.714Z,96922.94
2024-01-15T21:34:10.015Z,96918.72
2024-01-15T21:36:38.304Z,96930.06
2024-01-15T21:39:07.328Z,96927.41
2024-01-15T21:41:34.986Z,96941.56
2024-01-15T21:44:07.531Z,96928.41
2024-01-15T21:46:37.049Z,96934.91
2024-01-15T21:49:07.921Z,96941.22
2024-01-15T21:51:36.228Z,96949.22
2024-01-15T21:54:03.992Z,96947.53
2024-01-15T21:56:32.977Z,96954.34
2024-01-15T21:59:01.309Z,96956.03
2024-01-15T22:01:29.566Z,96952.84
2024-01-15T22:03:57.292Z,96956.50
2024-01-15T22:06:25.086Z,96966.69
2024-01-15T22:08:52.829Z,96972.84
2024-01-15T22:11:20.453Z,96976.81
2024-01-15T22:13:49.494Z,96976.69
2024-01-15T22:16:17.094Z,96977.66
2024-01-15T22:18:45.363Z,96979.63
2024-01-15T22:21:13.060Z,96989.31
2024-01-15T22:23:41.336Z,96987.63
2024-01-15T22:26:09.086Z,96989.16
2024-01-15T22:28:36.683Z,96985.94
2024-01-15T22:31:05.755Z,97004.44
2024-01-15T22:33:33.419Z,97008.09
2024-01-15T22:36:01.145Z,97013.13
2024-01-15T22:38:28.773Z,97003.97
2024-01-15T22:40:56.462Z,96998.06
2024-01-15T22:43:24.072Z,97004.31
2024-01-15T22:45:52.035Z,97015.78
2024-01-15T22:48:21.345Z,97008.78
2024-01-15T22:50:49.046Z,97010.75
2024-01-15T22:53:16.716Z,97019.59
2024-01-15T22:55:44.374Z,97021.28
2024-01-15T22:58:11.988Z,97022.09
2024-01-15T23:00:44.724Z,97036.41
2024-01-15T23:03:12.941Z,97025.63
2024-01-15T23:05:42.262Z,97027.06
2024-01-15T23:08:09.874Z,97027.06
2024-01-15T23:10:37.481Z,97032.41
2024-01-15T23:13:05.284Z,97029.72
2024-01-15T23:15:32.917Z,97029.72
2024-01-15T23:18:01.010Z,97027.34
2024-01-15T23:20:28.848Z,97034.06
2024-01-15T23:22:57.793Z,97039.41
2024-01-15T23:25:25.408Z,97030.56
2024-01-15T23:27:52.992Z,97041.50
2024-01-15T23:30:21.044Z,97039.84
2024-01-15T23:32:49.561Z,97042.34
2024-01-15T23:35:17.555Z,97039.84
2024-01-15T23:37:45.096Z,97045.16
2024-01-15T23:40:15.055Z,97043.16
2024-01-15T23:42:42.662Z,97059.97
2024-01-15T23:45:10.412Z,97050.28
2024-01-15T23:47:38.071Z,97059.56
2024-01-15T23:50:06.245Z,97055.63
2024-01-15T23:52:33.896Z,97060.09
2024-01-15T23:55:01.446Z,97060.56
2024-01-15T23:57:30.385Z,97048.91
2024-01-15T23:59:58.497Z,97059.03
